sensor_id;sensor_type;location;lat;lon;timestamp;P1;P4;P2;P0;N10;N4;N25;N1;N05;TS
78703;SPS30;68034;51.966;5.676;2023-09-30T00:00:06;2.1;2.1;2.1;2.0;;;;3.0;34.0;
78703;SPS30;68034;51.966;5.676;2023-09-30T00:02:36;0.0;0.0;0.0;0.0;;;;3.0;35.0;
78703;SPS30;68034;51.966;5.676;2023-09-30T00:05:05;0.1;0.1;0.1;0.1;;;;3.0;35.0;
78703;SPS30;68034;51.966;5.676;2023-09-30T00:07:34;0.0;0.0;0.0;0.0;;;;3.0;36.0;
78703;SPS30;68034;51.966;5.676;2023-09-30T00:10:03;0.0;0.0;0.0;0.0;;;;3.0;36.0;
78703;SPS30;68034;51.966;5.676;2023-09-30T00:12:32;0.0;0.0;0.0;0.0;;;;3.0;36.0;
78703;SPS30;68034;51.966;5.676;2023-09-30T00:15:01;0.0;0.0;0.0;0.0;;;;3.0;37.0;
78703;SPS30;68034;51.966;5.676;2023-09-30T00:17:30;0.0;0.0;0.0;0.0;;;;3.0;37.0;
78703;SPS30;68034;51.966;5.676;2023-09-30T00:19:58;0.0;0.0;0.0;0.0;;;;3.0;37.0;
78703;SPS30;68034;51.966;5.676;2023-09-30T00:22:27;0.0;0.0;0.0;0.0;;;;3.0;37.0;
78703;SPS30;68034;51.966;5.676;2023-09-30T00:24:55;0.0;0.0;0.0;0.0;;;;3.0;37.0;
78703;SPS30;68034;51.966;5.676;2023-09-30T00:27:24;0.0;0.0;0.0;0.0;;;;3.0;37.0;
78703;SPS30;68034;51.966;5.676;2023-09-30T00:29:53;2.2;2.2;2.2;2.1;;;;3.0;37.0;
78703;SPS30;68034;51.966;5.676;2023-09-30T00:32:22;2.2;2.2;2.2;2.1;;;;2.0;37.0;
78703;SPS30;68034;51.966;5.676;2023-09-30T00:34:50;0.0;0.0;0.0;0.0;;;;2.0;37.0;
78703;SPS30;68034;51.966;5.676;2023-09-30T00:37:19;0.2;0.2;0.2;0.2;;;;2.0;37.0;
78703;SPS30;68034;51.966;5.676;2023-09-30T00:39:49;0.6;0.6;0.6;0.6;;;;2.0;36.0;
78703;SPS30;68034;51.966;5.676;2023-09-30T00:42:19;0.0;0.0;0.0;0.0;;;;2.0;36.0;
78703;SPS30;68034;51.966;5.676;2023-09-30T00:44:48;0.2;0.2;0.2;0.2;;;;2.0;36.0;
78703;SPS30;68034;51.966;5.676;2023-09-30T00:47:16;0.0;0.0;0.0;0.0;;;;2.0;36.0;
78703;SPS30;68034;51.966;5.676;2023-09-30T00:49:47;0.0;0.0;0.0;0.0;;;;2.0;37.0;
78703;SPS30;68034;51.966;5.676;2023-09-30T00:52:19;0.0;0.0;0.0;0.0;;;;2.0;38.0;
78703;SPS30;68034;51.966;5.676;2023-09-30T00:54:48;0.0;0.0;0.0;0.0;;;;2.0;38.0;
78703;SPS30;68034;51.966;5.676;2023-09-30T00:57:19;0.0;0.0;0.0;0.0;;;;2.0;38.0;
78703;SPS30;68034;51.966;5.676;2023-09-30T00:59:49;0.0;0.0;0.0;0.0;;;;2.0;39.0;
78703;SPS30;68034;51.966;5.676;2023-09-30T01:02:19;0.0;0.0;0.0;0.0;;;;2.0;40.0;
78703;SPS30;68034;51.966;5.676;2023-09-30T01:04:49;2.1;2.1;2.1;2.0;;;;2.0;41.0;
78703;SPS30;68034;51.966;5.676;2023-09-30T01:07:18;0.3;0.3;0.3;0.2;;;;2.0;41.0;
78703;SPS30;68034;51.966;5.676;2023-09-30T01:09:48;3.3;3.3;3.3;3.2;;;;2.0;41.0;
78703;SPS30;68034;51.966;5.676;2023-09-30T01:12:17;0.0;0.0;0.0;0.0;;;;2.0;41.0;
78703;SPS30;68034;51.966;5.676;2023-09-30T01:14:45;0.2;0.2;0.2;0.2;;;;2.0;40.0;
78703;SPS30;68034;51.966;5.676;2023-09-30T01:17:13;0.0;0.0;0.0;0.0;;;;2.0;39.0;
78703;SPS30;68034;51.966;5.676;2023-09-30T01:19:44;0.0;0.0;0.0;0.0;;;;2.0;39.0;
78703;SPS30;68034;51.966;5.676;2023-09-30T01:22:15;0.0;0.0;0.0;0.0;;;;2.0;39.0;
78703;SPS30;68034;51.966;5.676;2023-09-30T01:24:44;0.0;0.0;0.0;0.0;;;;2.0;39.0;
78703;SPS30;68034;51.966;5.676;2023-09-30T01:27:13;0.0;0.0;0.0;0.0;;;;2.0;39.0;
78703;SPS30;68034;51.966;5.676;2023-09-30T01:29:44;0.0;0.0;0.0;0.0;;;;2.0;40.0;
78703;SPS30;68034;51.966;5.676;2023-09-30T01:32:13;0.7;0.7;0.7;0.6;;;;2.0;41.0;
78703;SPS30;68034;51.966;5.676;2023-09-30T01:34:44;0.0;0.0;0.0;0.0;;;;2.0;41.0;
78703;SPS30;68034;51.966;5.676;2023-09-30T01:37:12;0.0;0.0;0.0;0.0;;;;2.0;41.0;
78703;SPS30;68034;51.966;5.676;2023-09-30T01:39:41;0.0;0.0;0.0;0.0;;;;2.0;41.0;
78703;SPS30;68034;51.966;5.676;2023-09-30T01:42:10;0.0;0.0;0.0;0.0;;;;2.0;41.0;
78703;SPS30;68034;51.966;5.676;2023-09-30T01:44:39;0.0;0.0;0.0;0.0;;;;2.0;41.0;
78703;SPS30;68034;51.966;5.676;2023-09-30T01:47:07;0.0;0.0;0.0;0.0;;;;2.0;41.0;
78703;SPS30;68034;51.966;5.676;2023-09-30T01:49:36;0.0;0.0;0.0;0.0;;;;2.0;41.0;
78703;SPS30;68034;51.966;5.676;2023-09-30T01:52:06;0.0;0.0;0.0;0.0;;;;2.0;41.0;
78703;SPS30;68034;51.966;5.676;2023-09-30T01:54:35;0.0;0.0;0.0;0.0;;;;2.0;42.0;
78703;SPS30;68034;51.966;5.676;2023-09-30T01:57:03;0.3;0.3;0.3;0.3;;;;2.0;42.0;
78703;SPS30;68034;51.966;5.676;2023-09-30T01:59:32;0.0;0.0;0.0;0.0;;;;2.0;42.0;
78703;SPS30;68034;51.966;5.676;2023-09-30T02:02:00;0.0;0.0;0.0;0.0;;;;2.0;42.0;
78703;SPS30;68034;51.966;5.676;2023-09-30T02:04:29;0.0;0.0;0.0;0.0;;;;2.0;43.0;
78703;SPS30;68034;51.966;5.676;2023-09-30T02:06:58;0.0;0.0;0.0;0.0;;;;2.0;42.0;
78703;SPS30;68034;51.966;5.676;2023-09-30T02:09:26;0.0;0.0;0.0;0.0;;;;2.0;43.0;
78703;SPS30;68034;51.966;5.676;2023-09-30T02:11:55;0.0;0.0;0.0;0.0;;;;2.0;43.0;
78703;SPS30;68034;51.966;5.676;2023-09-30T02:14:24;0.0;0.0;0.0;0.0;;;;2.0;43.0;
78703;SPS30;68034;51.966;5.676;2023-09-30T02:16:52;0.0;0.0;0.0;0.0;;;;2.0;43.0;
78703;SPS30;68034;51.966;5.676;2023-09-30T02:19:21;0.0;0.0;0.0;0.0;;;;2.0;43.0;
78703;SPS30;68034;51.966;5.676;2023-09-30T02:21:53;0.0;0.0;0.0;0.0;;;;2.0;43.0;
78703;SPS30;68034;51.966;5.676;2023-09-30T02:24:22;0.0;0.0;0.0;0.0;;;;2.0;43.0;
78703;SPS30;68034;51.966;5.676;2023-09-30T02:26:51;0.0;0.0;0.0;0.0;;;;2.0;44.0;
78703;SPS30;68034;51.966;5.676;2023-09-30T02:29:19;0.0;0.0;0.0;0.0;;;;2.0;44.0;
78703;SPS30;68034;51.966;5.676;2023-09-30T02:31:48;0.8;0.8;0.8;0.8;;;;2.0;44.0;
78703;SPS30;68034;51.966;5.676;2023-09-30T02:34:17;3.8;3.8;3.8;3.6;;;;2.0;44.0;
78703;SPS30;68034;51.966;5.676;2023-09-30T02:36:45;0.0;0.0;0.0;0.0;;;;2.0;44.0;
78703;SPS30;68034;51.966;5.676;2023-09-30T02:39:14;0.0;0.0;0.0;0.0;;;;2.0;44.0;
78703;SPS30;68034;51.966;5.676;2023-09-30T02:41:44;0.0;0.0;0.0;0.0;;;;2.0;44.0;
78703;SPS30;68034;51.966;5.676;2023-09-30T02:44:12;2.5;2.5;2.5;2.3;;;;2.0;44.0;
78703;SPS30;68034;51.966;5.676;2023-09-30T02:46:43;0.0;0.0;0.0;0.0;;;;2.0;44.0;
78703;SPS30;68034;51.966;5.676;2023-09-30T02:49:14;0.0;0.0;0.0;0.0;;;;2.0;44.0;
78703;SPS30;68034;51.966;5.676;2023-09-30T02:51:43;0.0;0.0;0.0;0.0;;;;2.0;44.0;
78703;SPS30;68034;51.966;5.676;2023-09-30T02:54:11;0.0;0.0;0.0;0.0;;;;2.0;44.0;
78703;SPS30;68034;51.966;5.676;2023-09-30T02:56:42;0.0;0.0;0.0;0.0;;;;2.0;44.0;
78703;SPS30;68034;51.966;5.676;2023-09-30T02:59:12;0.0;0.0;0.0;0.0;;;;2.0;44.0;
78703;SPS30;68034;51.966;5.676;2023-09-30T03:01:42;0.0;0.0;0.0;0.0;;;;2.0;44.0;
78703;SPS30;68034;51.966;5.676;2023-09-30T03:04:11;0.0;0.0;0.0;0.0;;;;2.0;44.0;
78703;SPS30;68034;51.966;5.676;2023-09-30T03:06:39;0.0;0.0;0.0;0.0;;;;2.0;44.0;
78703;SPS30;68034;51.966;5.676;2023-09-30T03:09:10;0.0;0.0;0.0;0.0;;;;2.0;44.0;
78703;SPS30;68034;51.966;5.676;2023-09-30T03:11:41;0.0;0.0;0.0;0.0;;;;2.0;44.0;
78703;SPS30;68034;51.966;5.676;2023-09-30T03:14:11;0.0;0.0;0.0;0.0;;;;2.0;44.0;
78703;SPS30;68034;51.966;5.676;2023-09-30T03:16:39;0.0;0.0;0.0;0.0;;;;2.0;44.0;
78703;SPS30;68034;51.966;5.676;2023-09-30T03:19:10;0.2;0.2;0.2;0.2;;;;2.0;44.0;
78703;SPS30;68034;51.966;5.676;2023-09-30T03:21:42;0.0;0.0;0.0;0.0;;;;2.0;44.0;
78703;SPS30;68034;51.966;5.676;2023-09-30T03:24:11;0.0;0.0;0.0;0.0;;;;2.0;44.0;
78703;SPS30;68034;51.966;5.676;2023-09-30T03:26:42;0.0;0.0;0.0;0.0;;;;2.0;44.0;
78703;SPS30;68034;51.966;5.676;2023-09-30T03:29:11;0.0;0.0;0.0;0.0;;;;2.0;44.0;
78703;SPS30;68034;51.966;5.676;2023-09-30T03:31:42;0.0;0.0;0.0;0.0;;;;2.0;44.0;
78703;SPS30;68034;51.966;5.676;2023-09-30T03:34:11;0.0;0.0;0.0;0.0;;;;2.0;44.0;
78703;SPS30;68034;51.966;5.676;2023-09-30T03:36:42;0.0;0.0;0.0;0.0;;;;2.0;44.0;
78703;SPS30;68034;51.966;5.676;2023-09-30T03:39:10;0.0;0.0;0.0;0.0;;;;2.0;44.0;
78703;SPS30;68034;51.966;5.676;2023-09-30T03:41:41;0.3;0.3;0.3;0.3;;;;2.0;44.0;
78703;SPS30;68034;51.966;5.676;2023-09-30T03:44:11;0.0;0.0;0.0;0.0;;;;2.0;45.0;
78703;SPS30;68034;51.966;5.676;2023-09-30T03:46:40;0.0;0.0;0.0;0.0;;;;2.0;45.0;
78703;SPS30;68034;51.966;5.676;2023-09-30T03:49:09;0.0;0.0;0.0;0.0;;;;2.0;45.0;
78703;SPS30;68034;51.966;5.676;2023-09-30T03:51:37;0.0;0.0;0.0;0.0;;;;2.0;46.0;
78703;SPS30;68034;51.966;5.676;2023-09-30T03:54:06;0.0;0.0;0.0;0.0;;;;1.0;46.0;
78703;SPS30;68034;51.966;5.676;2023-09-30T03:56:35;0.0;0.0;0.0;0.0;;;;1.0;46.0;
78703;SPS30;68034;51.966;5.676;2023-09-30T03:59:04;0.0;0.0;0.0;0.0;;;;1.0;46.0;
78703;SPS30;68034;51.966;5.676;2023-09-30T04:01:34;0.0;0.0;0.0;0.0;;;;1.0;46.0;
78703;SPS30;68034;51.966;5.676;2023-09-30T04:04:06;0.0;0.0;0.0;0.0;;;;1.0;46.0;
78703;SPS30;68034;51.966;5.676;2023-09-30T04:06:36;2.6;2.6;2.6;2.5;;;;1.0;47.0;
78703;SPS30;68034;51.966;5.676;2023-09-30T04:09:05;0.0;0.0;0.0;0.0;;;;1.0;47.0;
78703;SPS30;68034;51.966;5.676;2023-09-30T04:11:38;0.0;0.0;0.0;0.0;;;;1.0;47.0;
78703;SPS30;68034;51.966;5.676;2023-09-30T04:14:08;0.0;0.0;0.0;0.0;;;;1.0;48.0;
78703;SPS30;68034;51.966;5.676;2023-09-30T04:16:37;0.0;0.0;0.0;0.0;;;;1.0;48.0;
78703;SPS30;68034;51.966;5.676;2023-09-30T04:19:07;0.7;0.7;0.7;0.7;;;;1.0;48.0;
78703;SPS30;68034;51.966;5.676;2023-09-30T04:21:36;0.0;0.0;0.0;0.0;;;;1.0;48.0;
78703;SPS30;68034;51.966;5.676;2023-09-30T04:24:05;0.0;0.0;0.0;0.0;;;;1.0;48.0;
78703;SPS30;68034;51.966;5.676;2023-09-30T04:26:35;0.0;0.0;0.0;0.0;;;;1.0;48.0;
78703;SPS30;68034;51.966;5.676;2023-09-30T04:29:08;0.0;0.0;0.0;0.0;;;;1.0;48.0;
78703;SPS30;68034;51.966;5.676;2023-09-30T04:31:36;0.0;0.0;0.0;0.0;;;;1.0;48.0;
78703;SPS30;68034;51.966;5.676;2023-09-30T04:34:08;0.0;0.0;0.0;0.0;;;;1.0;48.0;
78703;SPS30;68034;51.966;5.676;2023-09-30T04:36:36;0.0;0.0;0.0;0.0;;;;1.0;48.0;
78703;SPS30;68034;51.966;5.676;2023-09-30T04:39:08;0.0;0.0;0.0;0.0;;;;1.0;48.0;
78703;SPS30;68034;51.966;5.676;2023-09-30T04:41:38;0.0;0.0;0.0;0.0;;;;1.0;48.0;
78703;SPS30;68034;51.966;5.676;2023-09-30T04:44:08;0.0;0.0;0.0;0.0;;;;1.0;48.0;
78703;SPS30;68034;51.966;5.676;2023-09-30T04:46:37;0.0;0.0;0.0;0.0;;;;1.0;48.0;
78703;SPS30;68034;51.966;5.676;2023-09-30T04:49:12;0.0;0.0;0.0;0.0;;;;1.0;48.0;
78703;SPS30;68034;51.966;5.676;2023-09-30T04:51:43;0.0;0.0;0.0;0.0;;;;1.0;48.0;
78703;SPS30;68034;51.966;5.676;2023-09-30T04:54:15;0.0;0.0;0.0;0.0;;;;1.0;48.0;
78703;SPS30;68034;51.966;5.676;2023-09-30T04:56:44;0.0;0.0;0.0;0.0;;;;1.0;48.0;
78703;SPS30;68034;51.966;5.676;2023-09-30T04:59:13;0.0;0.0;0.0;0.0;;;;2.0;48.0;
78703;SPS30;68034;51.966;5.676;2023-09-30T05:01:42;0.2;0.2;0.2;0.2;;;;2.0;49.0;
78703;SPS30;68034;51.966;5.676;2023-09-30T05:04:11;0.0;0.0;0.0;0.0;;;;2.0;49.0;
78703;SPS30;68034;51.966;5.676;2023-09-30T05:06:39;0.0;0.0;0.0;0.0;;;;2.0;50.0;
78703;SPS30;68034;51.966;5.676;2023-09-30T05:09:08;0.0;0.0;0.0;0.0;;;;2.0;50.0;
78703;SPS30;68034;51.966;5.676;2023-09-30T05:11:38;0.0;0.0;0.0;0.0;;;;2.0;51.0;
78703;SPS30;68034;51.966;5.676;2023-09-30T05:14:06;0.0;0.0;0.0;0.0;;;;2.0;51.0;
78703;SPS30;68034;51.966;5.676;2023-09-30T05:16:35;0.0;0.0;0.0;0.0;;;;2.0;51.0;
78703;SPS30;68034;51.966;5.676;2023-09-30T05:19:06;0.0;0.0;0.0;0.0;;;;2.0;51.0;
78703;SPS30;68034;51.966;5.676;2023-09-30T05:21:34;0.0;0.0;0.0;0.0;;;;2.0;51.0;
78703;SPS30;68034;51.966;5.676;2023-09-30T05:24:04;0.1;0.1;0.1;0.1;;;;2.0;51.0;
78703;SPS30;68034;51.966;5.676;2023-09-30T05:26:33;0.0;0.0;0.0;0.0;;;;2.0;51.0;
78703;SPS30;68034;51.966;5.676;2023-09-30T05:29:02;0.0;0.0;0.0;0.0;;;;2.0;51.0;
78703;SPS30;68034;51.966;5.676;2023-09-30T05:31:31;0.0;0.0;0.0;0.0;;;;2.0;51.0;
78703;SPS30;68034;51.966;5.676;2023-09-30T05:34:01;0.0;0.0;0.0;0.0;;;;2.0;52.0;
78703;SPS30;68034;51.966;5.676;2023-09-30T05:36:30;0.0;0.0;0.0;0.0;;;;2.0;52.0;
78703;SPS30;68034;51.966;5.676;2023-09-30T05:38:59;0.0;0.0;0.0;0.0;;;;2.0;52.0;
78703;SPS30;68034;51.966;5.676;2023-09-30T05:41:29;0.0;0.0;0.0;0.0;;;;2.0;51.0;
78703;SPS30;68034;51.966;5.676;2023-09-30T05:43:57;0.0;0.0;0.0;0.0;;;;2.0;51.0;
78703;SPS30;68034;51.966;5.676;2023-09-30T05:46:26;0.3;0.3;0.3;0.3;;;;2.0;51.0;
78703;SPS30;68034;51.966;5.676;2023-09-30T05:48:57;0.0;0.0;0.0;0.0;;;;2.0;51.0;
78703;SPS30;68034;51.966;5.676;2023-09-30T05:51:25;0.0;0.0;0.0;0.0;;;;2.0;52.0;
78703;SPS30;68034;51.966;5.676;2023-09-30T05:53:54;0.0;0.0;0.0;0.0;;;;2.0;53.0;
78703;SPS30;68034;51.966;5.676;2023-09-30T05:56:22;0.0;0.0;0.0;0.0;;;;2.0;55.0;
78703;SPS30;68034;51.966;5.676;2023-09-30T05:58:51;0.0;0.0;0.0;0.0;;;;2.0;56.0;
78703;SPS30;68034;51.966;5.676;2023-09-30T06:01:20;0.0;0.0;0.0;0.0;;;;2.0;57.0;
78703;SPS30;68034;51.966;5.676;2023-09-30T06:03:49;0.0;0.0;0.0;0.0;;;;2.0;57.0;
78703;SPS30;68034;51.966;5.676;2023-09-30T06:06:18;0.0;0.0;0.0;0.0;;;;2.0;57.0;
78703;SPS30;68034;51.966;5.676;2023-09-30T06:08:46;0.0;0.0;0.0;0.0;;;;2.0;57.0;
78703;SPS30;68034;51.966;5.676;2023-09-30T06:11:18;0.0;0.0;0.0;0.0;;;;2.0;57.0;
78703;SPS30;68034;51.966;5.676;2023-09-30T06:13:50;0.0;0.0;0.0;0.0;;;;2.0;57.0;
78703;SPS30;68034;51.966;5.676;2023-09-30T06:16:21;0.9;0.9;0.9;0.9;;;;2.0;56.0;
78703;SPS30;68034;51.966;5.676;2023-09-30T06:18:52;0.0;0.0;0.0;0.0;;;;2.0;56.0;
78703;SPS30;68034;51.966;5.676;2023-09-30T06:21:21;0.0;0.0;0.0;0.0;;;;2.0;55.0;
78703;SPS30;68034;51.966;5.676;2023-09-30T06:23:51;0.0;0.0;0.0;0.0;;;;2.0;55.0;
78703;SPS30;68034;51.966;5.676;2023-09-30T06:26:19;0.0;0.0;0.0;0.0;;;;2.0;54.0;
78703;SPS30;68034;51.966;5.676;2023-09-30T06:28:51;0.0;0.0;0.0;0.0;;;;2.0;54.0;
78703;SPS30;68034;51.966;5.676;2023-09-30T06:31:22;0.0;0.0;0.0;0.0;;;;2.0;54.0;
78703;SPS30;68034;51.966;5.676;2023-09-30T06:33:54;0.0;0.0;0.0;0.0;;;;2.0;54.0;
78703;SPS30;68034;51.966;5.676;2023-09-30T06:36:26;0.0;0.0;0.0;0.0;;;;2.0;55.0;
78703;SPS30;68034;51.966;5.676;2023-09-30T06:38:55;0.2;0.2;0.2;0.2;;;;2.0;55.0;
78703;SPS30;68034;51.966;5.676;2023-09-30T06:41:25;0.0;0.0;0.0;0.0;;;;2.0;56.0;
78703;SPS30;68034;51.966;5.676;2023-09-30T06:43:53;0.0;0.0;0.0;0.0;;;;2.0;56.0;
78703;SPS30;68034;51.966;5.676;2023-09-30T06:46:22;0.2;0.2;0.2;0.2;;;;2.0;56.0;
78703;SPS30;68034;51.966;5.676;2023-09-30T06:48:52;0.0;0.0;0.0;0.0;;;;2.0;57.0;
78703;SPS30;68034;51.966;5.676;2023-09-30T06:51:20;0.0;0.0;0.0;0.0;;;;2.0;57.0;
78703;SPS30;68034;51.966;5.676;2023-09-30T06:53:50;5.5;5.5;5.5;5.2;;;;2.0;57.0;
78703;SPS30;68034;51.966;5.676;2023-09-30T06:56:20;0.0;0.0;0.0;0.0;;;;2.0;58.0;
78703;SPS30;68034;51.966;5.676;2023-09-30T06:58:49;0.0;0.0;0.0;0.0;;;;2.0;58.0;
78703;SPS30;68034;51.966;5.676;2023-09-30T07:01:17;0.0;0.0;0.0;0.0;;;;2.0;58.0;
78703;SPS30;68034;51.966;5.676;2023-09-30T07:03:46;0.0;0.0;0.0;0.0;;;;2.0;59.0;
78703;SPS30;68034;51.966;5.676;2023-09-30T07:06:22;0.0;0.0;0.0;0.0;;;;2.0;60.0;
78703;SPS30;68034;51.966;5.676;2023-09-30T07:08:51;0.0;0.0;0.0;0.0;;;;2.0;61.0;
78703;SPS30;68034;51.966;5.676;2023-09-30T07:11:27;0.0;0.0;0.0;0.0;;;;2.0;62.0;
78703;SPS30;68034;51.966;5.676;2023-09-30T07:13:58;0.8;0.8;0.8;0.8;;;;2.0;69.0;
78703;SPS30;68034;51.966;5.676;2023-09-30T07:16:30;0.0;0.0;0.0;0.0;;;;2.0;81.0;
78703;SPS30;68034;51.966;5.676;2023-09-30T07:18:58;0.0;0.0;0.0;0.0;;;;2.0;84.0;
78703;SPS30;68034;51.966;5.676;2023-09-30T07:21:27;0.0;0.0;0.0;0.0;;;;2.0;87.0;
78703;SPS30;68034;51.966;5.676;2023-09-30T07:23:55;0.0;0.0;0.0;0.0;;;;2.0;87.0;
78703;SPS30;68034;51.966;5.676;2023-09-30T07:26:25;0.1;0.1;0.1;0.1;;;;2.0;86.0;
78703;SPS30;68034;51.966;5.676;2023-09-30T07:28:54;0.0;0.0;0.0;0.0;;;;2.0;85.0;
78703;SPS30;68034;51.966;5.676;2023-09-30T07:31:24;0.0;0.0;0.0;0.0;;;;2.0;83.0;
78703;SPS30;68034;51.966;5.676;2023-09-30T07:33:52;0.0;0.0;0.0;0.0;;;;2.0;81.0;
78703;SPS30;68034;51.966;5.676;2023-09-30T07:36:21;0.0;0.0;0.0;0.0;;;;2.0;79.0;
78703;SPS30;68034;51.966;5.676;2023-09-30T07:38:49;0.2;0.2;0.2;0.2;;;;2.0;78.0;
78703;SPS30;68034;51.966;5.676;2023-09-30T07:41:19;0.0;0.0;0.0;0.0;;;;2.0;78.0;
78703;SPS30;68034;51.966;5.676;2023-09-30T07:43:48;0.0;0.0;0.0;0.0;;;;2.0;78.0;
78703;SPS30;68034;51.966;5.676;2023-09-30T07:46:16;0.0;0.0;0.0;0.0;;;;2.0;78.0;
78703;SPS30;68034;51.966;5.676;2023-09-30T07:48:45;0.0;0.0;0.0;0.0;;;;2.0;78.0;
78703;SPS30;68034;51.966;5.676;2023-09-30T07:51:14;0.0;0.0;0.0;0.0;;;;2.0;79.0;
78703;SPS30;68034;51.966;5.676;2023-09-30T07:53:42;0.1;0.1;0.1;0.1;;;;2.0;80.0;
78703;SPS30;68034;51.966;5.676;2023-09-30T07:56:11;0.0;0.0;0.0;0.0;;;;2.0;80.0;
78703;SPS30;68034;51.966;5.676;2023-09-30T07:58:40;0.0;0.0;0.0;0.0;;;;2.0;82.0;
78703;SPS30;68034;51.966;5.676;2023-09-30T08:01:09;0.3;0.3;0.3;0.2;;;;2.0;83.0;
78703;SPS30;68034;51.966;5.676;2023-09-30T08:03:37;0.9;0.9;0.9;0.8;;;;2.0;84.0;
78703;SPS30;68034;51.966;5.676;2023-09-30T08:06:06;0.2;0.2;0.2;0.2;;;;2.0;85.0;
78703;SPS30;68034;51.966;5.676;2023-09-30T08:08:36;1.0;1.0;1.0;0.9;;;;2.0;86.0;
78703;SPS30;68034;51.966;5.676;2023-09-30T08:11:05;0.0;0.0;0.0;0.0;;;;2.0;88.0;
78703;SPS30;68034;51.966;5.676;2023-09-30T08:13:34;0.0;0.0;0.0;0.0;;;;2.0;91.0;
78703;SPS30;68034;51.966;5.676;2023-09-30T08:16:03;0.0;0.0;0.0;0.0;;;;2.0;93.0;
78703;SPS30;68034;51.966;5.676;2023-09-30T08:18:31;0.0;0.0;0.0;0.0;;;;2.0;94.0;
78703;SPS30;68034;51.966;5.676;2023-09-30T08:21:03;0.0;0.0;0.0;0.0;;;;2.0;96.0;
78703;SPS30;68034;51.966;5.676;2023-09-30T08:23:31;0.1;0.1;0.1;0.1;;;;2.0;98.0;
78703;SPS30;68034;51.966;5.676;2023-09-30T08:26:00;0.0;0.0;0.0;0.0;;;;2.0;99.0;
78703;SPS30;68034;51.966;5.676;2023-09-30T08:28:31;0.0;0.0;0.0;0.0;;;;2.0;101.0;
78703;SPS30;68034;51.966;5.676;2023-09-30T08:31:03;0.0;0.0;0.0;0.0;;;;2.0;102.0;
78703;SPS30;68034;51.966;5.676;2023-09-30T08:33:32;0.1;0.1;0.1;0.1;;;;2.0;103.0;
78703;SPS30;68034;51.966;5.676;2023-09-30T08:36:05;0.0;0.0;0.0;0.0;;;;2.0;104.0;
78703;SPS30;68034;51.966;5.676;2023-09-30T08:38:37;0.0;0.0;0.0;0.0;;;;2.0;106.0;
78703;SPS30;68034;51.966;5.676;2023-09-30T08:41:06;0.1;0.1;0.1;0.1;;;;2.0;108.0;
78703;SPS30;68034;51.966;5.676;2023-09-30T08:43:37;0.0;0.0;0.0;0.0;;;;2.0;111.0;
78703;SPS30;68034;51.966;5.676;2023-09-30T08:46:08;0.0;0.0;0.0;0.0;;;;2.0;112.0;
78703;SPS30;68034;51.966;5.676;2023-09-30T08:48:37;0.0;0.0;0.0;0.0;;;;2.0;115.0;
78703;SPS30;68034;51.966;5.676;2023-09-30T08:51:05;0.0;0.0;0.0;0.0;;;;2.0;118.0;
78703;SPS30;68034;51.966;5.676;2023-09-30T08:53:34;0.0;0.0;0.0;0.0;;;;2.0;119.0;
78703;SPS30;68034;51.966;5.676;2023-09-30T08:56:03;0.0;0.0;0.0;0.0;;;;2.0;121.0;
78703;SPS30;68034;51.966;5.676;2023-09-30T08:58:36;0.0;0.0;0.0;0.0;;;;2.0;123.0;
78703;SPS30;68034;51.966;5.676;2023-09-30T09:01:06;0.0;0.0;0.0;0.0;;;;2.0;126.0;
78703;SPS30;68034;51.966;5.676;2023-09-30T09:03:37;0.0;0.0;0.0;0.0;;;;2.0;126.0;
78703;SPS30;68034;51.966;5.676;2023-09-30T09:06:06;2.3;2.3;2.3;2.2;;;;2.0;127.0;
78703;SPS30;68034;51.966;5.676;2023-09-30T09:08:35;0.1;0.1;0.1;0.1;;;;2.0;128.0;
78703;SPS30;68034;51.966;5.676;2023-09-30T09:11:04;0.7;0.7;0.7;0.7;;;;2.0;129.0;
78703;SPS30;68034;51.966;5.676;2023-09-30T09:13:45;0.0;0.0;0.0;0.0;;;;2.0;134.0;
78703;SPS30;68034;51.966;5.676;2023-09-30T09:16:19;0.0;0.0;0.0;0.0;;;;2.0;141.0;
78703;SPS30;68034;51.966;5.676;2023-09-30T09:18:48;0.0;0.0;0.0;0.0;;;;2.0;187.0;
78703;SPS30;68034;51.966;5.676;2023-09-30T09:21:19;0.1;0.1;0.1;0.1;;;;2.0;174.0;
78703;SPS30;68034;51.966;5.676;2023-09-30T09:23:50;1.0;1.0;1.0;0.9;;;;2.0;167.0;
78703;SPS30;68034;51.966;5.676;2023-09-30T09:26:29;0.0;0.0;0.0;0.0;;;;2.0;164.0;
78703;SPS30;68034;51.966;5.676;2023-09-30T09:29:04;1.9;1.9;1.9;1.8;;;;2.0;162.0;
78703;SPS30;68034;51.966;5.676;2023-09-30T09:31:44;0.0;0.0;0.0;0.0;;;;2.0;160.0;
78703;SPS30;68034;51.966;5.676;2023-09-30T09:34:14;0.0;0.0;0.0;0.0;;;;2.0;161.0;
78703;SPS30;68034;51.966;5.676;2023-09-30T09:36:51;0.6;0.6;0.6;0.6;;;;2.0;169.0;
78703;SPS30;68034;51.966;5.676;2023-09-30T09:39:33;0.0;0.0;0.0;0.0;;;;2.0;184.0;
78703;SPS30;68034;51.966;5.676;2023-09-30T09:42:05;0.0;0.0;0.0;0.0;;;;2.0;193.0;
78703;SPS30;68034;51.966;5.676;2023-09-30T09:44:38;0.0;0.0;0.0;0.0;;;;2.0;199.0;
78703;SPS30;68034;51.966;5.676;2023-09-30T09:47:08;0.0;0.0;0.0;0.0;;;;2.0;202.0;
78703;SPS30;68034;51.966;5.676;2023-09-30T09:49:38;0.0;0.0;0.0;0.0;;;;2.0;201.0;
78703;SPS30;68034;51.966;5.676;2023-09-30T09:52:07;0.0;0.0;0.0;0.0;;;;2.0;199.0;
78703;SPS30;68034;51.966;5.676;2023-09-30T09:54:36;0.5;0.5;0.5;0.5;;;;2.0;197.0;
78703;SPS30;68034;51.966;5.676;2023-09-30T09:57:06;0.0;0.0;0.0;0.0;;;;2.0;197.0;
78703;SPS30;68034;51.966;5.676;2023-09-30T09:59:38;0.0;0.0;0.0;0.0;;;;2.0;196.0;
78703;SPS30;68034;51.966;5.676;2023-09-30T10:02:10;0.0;0.0;0.0;0.0;;;;2.0;195.0;
78703;SPS30;68034;51.966;5.676;2023-09-30T10:04:40;0.1;0.1;0.1;0.1;;;;2.0;195.0;
78703;SPS30;68034;51.966;5.676;2023-09-30T10:07:11;3.4;3.4;3.4;3.2;;;;1.0;195.0;
78703;SPS30;68034;51.966;5.676;2023-09-30T10:09:46;0.0;0.0;0.0;0.0;;;;1.0;195.0;
78703;SPS30;68034;51.966;5.676;2023-09-30T10:12:19;0.1;0.1;0.1;0.1;;;;1.0;199.0;
78703;SPS30;68034;51.966;5.676;2023-09-30T10:14:49;0.0;0.0;0.0;0.0;;;;1.0;203.0;
78703;SPS30;68034;51.966;5.676;2023-09-30T10:17:18;0.0;0.0;0.0;0.0;;;;1.0;203.0;
78703;SPS30;68034;51.966;5.676;2023-09-30T10:20:05;0.2;0.2;0.2;0.2;;;;1.0;203.0;
78703;SPS30;68034;51.966;5.676;2023-09-30T10:22:35;0.0;0.0;0.0;0.0;;;;1.0;207.0;
78703;SPS30;68034;51.966;5.676;2023-09-30T10:28:33;0.0;0.0;0.0;0.0;;;;1.0;208.0;
78703;SPS30;68034;51.966;5.676;2023-09-30T10:31:12;0.0;0.0;0.0;0.0;;;;1.0;207.0;
78703;SPS30;68034;51.966;5.676;2023-09-30T10:34:44;0.0;0.0;0.0;0.0;;;;1.0;207.0;
78703;SPS30;68034;51.966;5.676;2023-09-30T10:37:21;0.0;0.0;0.0;0.0;;;;1.0;207.0;
78703;SPS30;68034;51.966;5.676;2023-09-30T10:39:55;0.1;0.1;0.1;0.1;;;;1.0;207.0;
78703;SPS30;68034;51.966;5.676;2023-09-30T10:48:37;0.0;0.0;0.0;0.0;;;;1.0;214.0;
78703;SPS30;68034;51.966;5.676;2023-09-30T10:51:17;0.0;0.0;0.0;0.0;;;;1.0;213.0;
78703;SPS30;68034;51.966;5.676;2023-09-30T10:53:48;0.0;0.0;0.0;0.0;;;;1.0;214.0;
78703;SPS30;68034;51.966;5.676;2023-09-30T10:56:23;0.0;0.0;0.0;0.0;;;;1.0;214.0;
78703;SPS30;68034;51.966;5.676;2023-09-30T10:58:56;0.0;0.0;0.0;0.0;;;;1.0;214.0;
78703;SPS30;68034;51.966;5.676;2023-09-30T11:01:31;0.0;0.0;0.0;0.0;;;;1.0;216.0;
78703;SPS30;68034;51.966;5.676;2023-09-30T11:04:03;0.0;0.0;0.0;0.0;;;;1.0;219.0;
78703;SPS30;68034;51.966;5.676;2023-09-30T11:06:34;0.4;0.4;0.4;0.3;;;;1.0;223.0;
78703;SPS30;68034;51.966;5.676;2023-09-30T11:09:08;0.0;0.0;0.0;0.0;;;;1.0;222.0;
78703;SPS30;68034;51.966;5.676;2023-09-30T11:11:40;0.0;0.0;0.0;0.0;;;;1.0;221.0;
78703;SPS30;68034;51.966;5.676;2023-09-30T11:14:21;0.4;0.4;0.4;0.4;;;;1.0;217.0;
78703;SPS30;68034;51.966;5.676;2023-09-30T11:16:51;0.0;0.0;0.0;0.0;;;;1.0;211.0;
78703;SPS30;68034;51.966;5.676;2023-09-30T11:19:22;0.0;0.0;0.0;0.0;;;;1.0;205.0;
78703;SPS30;68034;51.966;5.676;2023-09-30T11:21:53;0.0;0.0;0.0;0.0;;;;1.0;200.0;
78703;SPS30;68034;51.966;5.676;2023-09-30T11:24:24;0.0;0.0;0.0;0.0;;;;1.0;192.0;
78703;SPS30;68034;51.966;5.676;2023-09-30T11:26:55;0.0;0.0;0.0;0.0;;;;1.0;194.0;
78703;SPS30;68034;51.966;5.676;2023-09-30T11:29:23;0.0;0.0;0.0;0.0;;;;1.0;194.0;
78703;SPS30;68034;51.966;5.676;2023-09-30T11:31:53;0.0;0.0;0.0;0.0;;;;1.0;195.0;
78703;SPS30;68034;51.966;5.676;2023-09-30T11:34:30;0.0;0.0;0.0;0.0;;;;1.0;198.0;
78703;SPS30;68034;51.966;5.676;2023-09-30T11:37:04;0.0;0.0;0.0;0.0;;;;1.0;202.0;
78703;SPS30;68034;51.966;5.676;2023-09-30T11:39:33;0.0;0.0;0.0;0.0;;;;1.0;204.0;
78703;SPS30;68034;51.966;5.676;2023-09-30T11:42:02;0.2;0.2;0.2;0.2;;;;1.0;204.0;
78703;SPS30;68034;51.966;5.676;2023-09-30T11:44:46;0.0;0.0;0.0;0.0;;;;1.0;206.0;
78703;SPS30;68034;51.966;5.676;2023-09-30T11:47:16;0.0;0.0;0.0;0.0;;;;1.0;208.0;
78703;SPS30;68034;51.966;5.676;2023-09-30T11:49:54;0.0;0.0;0.0;0.0;;;;1.0;207.0;
78703;SPS30;68034;51.966;5.676;2023-09-30T11:52:27;0.0;0.0;0.0;0.0;;;;1.0;205.0;
78703;SPS30;68034;51.966;5.676;2023-09-30T11:54:56;0.0;0.0;0.0;0.0;;;;1.0;204.0;
78703;SPS30;68034;51.966;5.676;2023-09-30T11:57:27;0.0;0.0;0.0;0.0;;;;1.0;201.0;
78703;SPS30;68034;51.966;5.676;2023-09-30T11:59:57;0.0;0.0;0.0;0.0;;;;1.0;200.0;
78703;SPS30;68034;51.966;5.676;2023-09-30T12:02:25;0.0;0.0;0.0;0.0;;;;1.0;204.0;
78703;SPS30;68034;51.966;5.676;2023-09-30T12:04:54;0.0;0.0;0.0;0.0;;;;1.0;204.0;
78703;SPS30;68034;51.966;5.676;2023-09-30T12:07:24;0.0;0.0;0.0;0.0;;;;1.0;203.0;
78703;SPS30;68034;51.966;5.676;2023-09-30T12:09:52;0.2;0.2;0.2;0.2;;;;1.0;202.0;
78703;SPS30;68034;51.966;5.676;2023-09-30T12:12:21;0.0;0.0;0.0;0.0;;;;1.0;200.0;
78703;SPS30;68034;51.966;5.676;2023-09-30T12:14:51;0.0;0.0;0.0;0.0;;;;1.0;198.0;
78703;SPS30;68034;51.966;5.676;2023-09-30T12:17:21;0.0;0.0;0.0;0.0;;;;1.0;197.0;
78703;SPS30;68034;51.966;5.676;2023-09-30T12:19:50;0.0;0.0;0.0;0.0;;;;1.0;198.0;
78703;SPS30;68034;51.966;5.676;2023-09-30T12:22:18;0.1;0.1;0.1;0.1;;;;1.0;198.0;
78703;SPS30;68034;51.966;5.676;2023-09-30T12:24:48;0.0;0.0;0.0;0.0;;;;1.0;199.0;
78703;SPS30;68034;51.966;5.676;2023-09-30T12:27:18;0.0;0.0;0.0;0.0;;;;1.0;199.0;
78703;SPS30;68034;51.966;5.676;2023-09-30T12:29:46;0.0;0.0;0.0;0.0;;;;1.0;200.0;
78703;SPS30;68034;51.966;5.676;2023-09-30T12:32:15;0.0;0.0;0.0;0.0;;;;1.0;200.0;